Time;durP1;ratioP1;P1;durP2;ratioP2;P2;SDS_P1;SDS_P2;PMS_P1;PMS_P2;Temp;Humidity;BMP_temperature;BMP_pressure;BME280_temperature;BME280_humidity;BME280_pressure;Samples;Min_cycle;Max_cycle;Signal;HPM_P1;HPM_P2
2023/01/02 00:02:10;;;;;;;2.37;0.90;;;;;;;10.93;100.00;96450.16;4886881;29;20044;-91
2023/01/02 00:04:41;;;;;;;2.57;1.07;;;;;;;10.92;100.00;96451.13;4865050;29;20448;-91
2023/01/02 00:07:07;;;;;;;4.87;1.67;;;;;;;10.81;100.00;96446.97;4862011;29;20064;-90
2023/01/02 00:09:36;;;;;;;3.07;1.30;;;;;;;10.71;100.00;96445.41;4885234;29;20392;-90
2023/01/02 00:12:03;;;;;;;2.23;1.00;;;;;;;10.79;100.00;96442.81;4886713;29;20116;-90
2023/01/02 00:14:32;;;;;;;5.67;1.03;;;;;;;10.83;100.00;96441.53;4881782;29;20139;-90
2023/01/02 00:16:58;;;;;;;2.67;1.07;;;;;;;10.79;100.00;96430.50;4881237;29;20228;-90
2023/01/02 00:19:25;;;;;;;2.57;1.30;;;;;;;10.72;100.00;96433.91;4879109;29;20041;-90
2023/01/02 00:21:52;;;;;;;3.70;1.13;;;;;;;10.71;100.00;96419.13;4886247;29;20037;-90
2023/01/02 00:24:17;;;;;;;2.37;1.17;;;;;;;10.76;100.00;96414.19;4889326;29;20115;-90
2023/01/02 00:26:46;;;;;;;7.87;1.97;;;;;;;10.73;100.00;96410.09;4880054;29;20048;-90
2023/01/02 00:29:12;;;;;;;5.87;1.57;;;;;;;10.88;100.00;96410.34;4877058;29;20088;-90
2023/01/02 00:31:44;;;;;;;4.13;1.30;;;;;;;10.99;100.00;96399.53;4885703;29;20080;-90
2023/01/02 00:34:10;;;;;;;6.57;1.33;;;;;;;10.97;100.00;96398.88;4889169;29;20459;-89
2023/01/02 00:36:36;;;;;;;4.07;1.10;;;;;;;11.07;100.00;96401.38;4907302;29;20020;-89
2023/01/02 00:39:01;;;;;;;3.77;1.20;;;;;;;11.04;100.00;96397.25;4895616;29;20032;-90
2023/01/02 00:41:27;;;;;;;7.17;1.80;;;;;;;10.92;100.00;96402.94;4914754;29;20039;-90
2023/01/02 00:43:53;;;;;;;6.60;2.13;;;;;;;10.92;100.00;96409.03;4876322;29;20052;-91
2023/01/02 00:46:19;;;;;;;5.63;1.77;;;;;;;10.85;100.00;96402.75;4890163;29;20028;-91
2023/01/02 00:48:44;;;;;;;4.90;1.67;;;;;;;10.74;100.00;96406.47;4884107;29;20033;-90
2023/01/02 00:51:10;;;;;;;3.93;1.40;;;;;;;10.80;100.00;96400.59;4880405;29;20078;-90
2023/01/02 00:53:36;;;;;;;6.43;1.80;;;;;;;10.83;100.00;96400.28;4887616;29;20088;-90
2023/01/02 00:56:03;;;;;;;4.20;2.00;;;;;;;10.84;100.00;96395.84;4884366;29;20127;-90
2023/01/02 00:58:28;;;;;;;6.20;1.90;;;;;;;10.84;100.00;96388.78;4888638;29;20036;-90
2023/01/02 01:00:55;;;;;;;3.10;1.37;;;;;;;10.82;100.00;96387.28;4888781;29;20440;-91
2023/01/02 01:03:21;;;;;;;4.20;1.40;;;;;;;10.79;100.00;96387.59;4892769;29;20036;-90
2023/01/02 01:05:46;;;;;;;5.80;1.70;;;;;;;10.72;100.00;96387.38;4904116;29;20064;-91
2023/01/02 01:08:12;;;;;;;5.27;1.57;;;;;;;10.73;100.00;96386.44;4883360;29;20031;-89
2023/01/02 01:10:38;;;;;;;5.63;1.73;;;;;;;10.73;100.00;96389.06;4885253;29;20021;-91
2023/01/02 01:13:07;;;;;;;4.37;1.83;;;;;;;10.65;100.00;96393.44;4888544;29;20131;-91
2023/01/02 01:15:43;;;;;;;4.73;1.60;;;;;;;10.67;100.00;96394.13;4883540;29;20072;-90
2023/01/02 01:18:08;;;;;;;6.10;1.90;;;;;;;10.67;100.00;96388.84;4874379;29;20040;-90
2023/01/02 01:20:37;;;;;;;5.70;1.43;;;;;;;10.65;100.00;96393.44;4883757;29;20028;-90
2023/01/02 01:23:05;;;;;;;3.40;1.50;;;;;;;10.65;100.00;96391.63;4891190;29;20048;-90
2023/01/02 01:25:31;;;;;;;2.97;1.27;;;;;;;10.56;100.00;96392.53;4898287;29;20028;-90
2023/01/02 01:27:56;;;;;;;5.00;1.87;;;;;;;10.56;100.00;96396.03;4885994;29;20047;-90
2023/01/02 01:30:22;;;;;;;5.57;2.60;;;;;;;10.59;100.00;96389.59;4885550;29;20029;-91
2023/01/02 01:32:48;;;;;;;5.10;1.47;;;;;;;10.52;100.00;96392.03;4900143;29;20035;-90
2023/01/02 01:35:13;;;;;;;3.70;2.00;;;;;;;10.53;100.00;96398.13;4898797;29;20119;-90
2023/01/02 01:37:39;;;;;;;4.17;1.60;;;;;;;10.58;100.00;96393.22;4879712;29;20041;-90
2023/01/02 01:40:06;;;;;;;2.17;1.30;;;;;;;10.60;100.00;96388.66;4894735;29;20045;-91
2023/01/02 01:42:32;;;;;;;4.50;1.60;;;;;;;10.58;100.00;96395.84;4891699;29;20032;-90
2023/01/02 01:44:58;;;;;;;4.03;1.30;;;;;;;10.56;100.00;96398.66;4875494;29;20040;-90
2023/01/02 01:47:37;;;;;;;1.80;0.90;;;;;;;10.58;100.00;96391.41;4882075;29;20043;-91
2023/01/02 01:50:15;;;;;;;2.03;0.97;;;;;;;10.90;100.00;96397.84;4879733;29;20065;-90
2023/01/02 01:52:51;;;;;;;2.00;0.87;;;;;;;10.90;100.00;96397.00;4897900;29;20036;-90
2023/01/02 01:55:20;;;;;;;2.50;1.00;;;;;;;11.02;100.00;96393.94;4892828;29;20399;-91
2023/01/02 01:57:56;;;;;;;1.10;0.70;;;;;;;11.24;100.00;96387.28;4882961;29;20043;-90
2023/01/02 02:00:21;;;;;;;2.20;0.80;;;;;;;11.33;100.00;96394.25;4880411;29;20036;-90
2023/01/02 02:02:50;;;;;;;2.73;1.03;;;;;;;11.41;100.00;96396.06;4884920;29;20030;-90
2023/01/02 02:05:22;;;;;;;2.23;0.90;;;;;;;11.44;100.00;96387.03;4889203;29;20051;-90
2023/01/02 02:08:02;;;;;;;2.20;0.80;;;;;;;11.40;100.00;96391.78;4884531;29;20036;-90
2023/01/02 02:10:28;;;;;;;3.97;1.00;;;;;;;11.31;100.00;96388.31;4881618;29;20040;-90
2023/01/02 02:12:58;;;;;;;4.00;1.03;;;;;;;11.20;100.00;96393.03;4879339;29;20077;-90
2023/01/02 02:15:41;;;;;;;2.40;1.00;;;;;;;11.12;100.00;96390.38;4879886;29;20153;-90
2023/01/02 02:18:30;;;;;;;4.93;1.87;;;;;;;11.05;100.00;96388.38;4886287;29;20039;-90
2023/01/02 02:21:41;;;;;;;3.10;0.97;;;;;;;10.95;100.00;96384.22;4892713;29;20160;-90
2023/01/02 02:24:25;;;;;;;2.20;1.00;;;;;;;10.82;100.00;96382.00;4888511;29;20033;-90
2023/01/02 02:27:20;;;;;;;3.77;1.30;;;;;;;10.82;100.00;96380.19;4898215;29;20055;-90
2023/01/02 02:29:58;;;;;;;4.87;1.43;;;;;;;10.80;100.00;96384.00;4896837;29;20041;-90
2023/01/02 02:32:40;;;;;;;3.63;1.23;;;;;;;10.81;100.00;96378.56;4887387;29;20399;-90
2023/01/02 02:35:35;;;;;;;2.73;0.90;;;;;;;10.73;100.00;96377.69;4881454;29;20068;-90
2023/01/02 02:38:21;;;;;;;1.67;0.87;;;;;;;10.76;100.00;96366.84;4896878;29;20068;-90
2023/01/02 02:41:10;;;;;;;2.70;0.90;;;;;;;10.84;100.00;96366.91;4894199;29;20128;-90
2023/01/02 02:44:14;;;;;;;4.00;1.37;;;;;;;10.77;100.00;96366.72;4885487;29;20036;-90
2023/01/02 02:47:04;;;;;;;2.47;1.03;;;;;;;10.71;100.00;96369.16;4883079;29;20789;-90
2023/01/02 02:49:55;;;;;;;2.00;1.17;;;;;;;10.65;100.00;96353.97;4881347;29;20128;-90
2023/01/02 02:52:30;;;;;;;3.63;0.77;;;;;;;10.62;100.00;96350.66;4881353;29;20104;-90
2023/01/02 02:55:01;;;;;;;3.10;1.00;;;;;;;10.61;100.00;96346.41;4886155;29;20048;-90
2023/01/02 02:57:29;;;;;;;1.80;0.90;;;;;;;10.53;100.00;96346.38;4880333;29;20044;-90
2023/01/02 02:59:55;;;;;;;2.33;0.67;;;;;;;10.52;100.00;96342.06;4884454;29;20109;-90
2023/01/02 03:02:21;;;;;;;3.40;1.00;;;;;;;10.62;100.00;96334.91;4882379;29;20045;-90
2023/01/02 03:04:56;;;;;;;1.67;0.70;;;;;;;10.61;100.00;96333.25;4881853;29;20040;-90
2023/01/02 03:07:35;;;;;;;1.50;0.80;;;;;;;10.61;100.00;96338.50;4880912;29;20032;-90
2023/01/02 03:10:20;;;;;;;3.80;1.00;;;;;;;10.71;100.00;96327.06;4883885;29;20487;-90
2023/01/02 03:13:06;;;;;;;4.03;1.70;;;;;;;10.73;100.00;96328.56;4880431;29;20036;-90
2023/01/02 03:15:39;;;;;;;1.73;0.90;;;;;;;10.86;100.00;96330.72;4899814;29;20103;-90
2023/01/02 03:18:34;;;;;;;3.65;1.15;;;;;;;11.01;100.00;96330.97;4886141;29;20051;-90
2023/01/02 03:21:11;;;;;;;1.67;0.83;;;;;;;11.07;100.00;96335.59;4872205;29;20123;-90
2023/01/02 03:23:48;;;;;;;2.87;0.70;;;;;;;11.12;100.00;96330.66;4885810;29;20032;-90
2023/01/02 03:26:31;;;;;;;1.73;0.70;;;;;;;11.33;100.00;96332.84;4881938;29;20088;-90
2023/01/02 03:29:11;;;;;;;1.97;0.60;;;;;;;11.38;100.00;96319.22;4885957;29;20088;-90
2023/01/02 03:31:54;;;;;;;2.10;0.73;;;;;;;11.56;100.00;96323.34;4886404;29;20032;-90
2023/01/02 03:34:24;;;;;;;1.58;0.68;;;;;;;11.56;100.00;96312.78;4880693;29;20037;-89
2023/01/02 03:37:21;;;;;;;2.13;0.80;;;;;;;11.60;100.00;96315.09;4882849;29;20479;-90
2023/01/02 03:39:53;;;;;;;1.50;0.70;;;;;;;11.70;100.00;96313.13;4875726;29;20040;-90
2023/01/02 03:42:33;;;;;;;2.17;0.97;;;;;;;11.86;100.00;96312.34;4886370;29;20040;-90
2023/01/02 03:45:08;;;;;;;3.93;0.77;;;;;;;11.99;100.00;96315.31;4877918;29;20037;-90
2023/01/02 03:47:52;;;;;;;2.83;0.70;;;;;;;12.02;100.00;96310.53;4897329;29;20044;-90
2023/01/02 03:50:26;;;;;;;4.77;0.97;;;;;;;12.05;100.00;96311.19;4886486;29;20051;-90
2023/01/02 03:52:52;;;;;;;2.53;0.60;;;;;;;12.17;100.00;96304.56;4881733;29;20037;-90
2023/01/02 03:55:22;;;;;;;1.40;0.40;;;;;;;12.25;100.00;96304.56;4882519;29;20040;-90
2023/01/02 03:58:14;;;;;;;2.10;0.70;;;;;;;12.21;100.00;96303.28;4889617;29;20037;-90
2023/01/02 04:01:11;;;;;;;1.43;0.70;;;;;;;12.35;100.00;96309.66;4896217;29;20116;-90
2023/01/02 04:03:51;;;;;;;1.50;0.60;;;;;;;12.34;100.00;96308.00;4890120;29;20049;-90
2023/01/02 04:06:31;;;;;;;2.80;0.70;;;;;;;12.30;100.00;96304.88;4907583;29;20036;-90
2023/01/02 04:08:59;;;;;;;2.20;0.70;;;;;;;12.24;100.00;96311.66;4882159;29;20455;-90
2023/01/02 04:11:27;;;;;;;2.07;0.70;;;;;;;12.22;100.00;96311.00;4898778;29;20079;-90
2023/01/02 04:14:02;;;;;;;1.70;0.43;;;;;;;12.25;100.00;96308.03;4914439;29;20040;-90
2023/01/02 04:16:37;;;;;;;2.90;0.67;;;;;;;12.25;100.00;96302.75;4902068;29;20063;-90
2023/01/02 04:19:13;;;;;;;3.87;0.70;;;;;;;12.16;100.00;96306.38;4885086;29;20043;-90
2023/01/02 04:21:44;;;;;;;1.87;0.90;;;;;;;12.06;100.00;96310.19;4882253;29;20037;-90
2023/01/02 04:24:18;;;;;;;0.90;0.50;;;;;;;11.95;100.00;96309.56;4881640;29;20514;-90
2023/01/02 04:27:06;;;;;;;1.20;0.53;;;;;;;11.89;100.00;96315.47;4879829;29;20032;-90
2023/01/02 04:29:32;;;;;;;2.97;0.73;;;;;;;11.85;100.00;96316.81;4882624;29;20044;-90
2023/01/02 04:32:27;;;;;;;1.57;0.60;;;;;;;11.79;100.00;96327.97;4879431;29;20547;-90
2023/01/02 04:34:54;;;;;;;1.87;0.80;;;;;;;11.73;100.00;96321.53;4889680;29;20062;-90
2023/01/02 04:37:35;;;;;;;3.50;1.30;;;;;;;11.68;100.00;96320.41;4896173;29;20132;-90
2023/01/02 04:40:09;;;;;;;2.23;1.00;;;;;;;11.59;100.00;96329.28;4881366;29;20128;-90
2023/01/02 04:42:35;;;;;;;4.70;2.00;;;;;;;11.48;100.00;96330.41;4879663;29;20041;-90
2023/01/02 04:45:02;;;;;;;6.37;2.87;;;;;;;11.47;100.00;96328.78;4882800;29;20055;-90
2023/01/02 04:47:28;;;;;;;3.03;1.53;;;;;;;11.45;100.00;96326.28;4879787;29;20114;-90
2023/01/02 04:49:54;;;;;;;5.53;1.63;;;;;;;11.36;100.00;96329.06;4879790;29;20033;-90
2023/01/02 04:52:20;;;;;;;7.00;1.93;;;;;;;11.29;100.00;96337.59;4878918;29;20043;-90
2023/01/02 04:54:46;;;;;;;5.50;2.77;;;;;;;11.28;100.00;96329.88;4883817;29;20032;-91
2023/01/02 04:57:12;;;;;;;3.63;2.07;;;;;;;11.36;100.00;96329.88;4889415;29;20046;-90
2023/01/02 04:59:38;;;;;;;2.93;1.27;;;;;;;11.29;100.00;96326.25;4882116;29;20112;-90
2023/01/02 05:02:04;;;;;;;3.07;1.10;;;;;;;11.14;100.00;96317.34;4876767;29;20492;-90
2023/01/02 05:04:29;;;;;;;3.40;1.47;;;;;;;11.22;100.00;96318.19;4877286;29;20407;-90
2023/01/02 05:06:55;;;;;;;3.90;1.50;;;;;;;11.14;100.00;96317.34;4877823;29;20037;-90
2023/01/02 05:09:27;;;;;;;1.97;0.83;;;;;;;10.96;100.00;96313.00;4897077;29;20025;-90
2023/01/02 05:11:52;;;;;;;1.80;0.97;;;;;;;10.96;100.00;96317.44;4882623;29;20033;-91
2023/01/02 05:15:08;;;;;;;3.67;0.90;;;;;;;10.89;100.00;96317.25;4889245;29;20419;-90
2023/01/02 05:17:41;;;;;;;1.33;0.60;;;;;;;10.82;100.00;96316.25;4881679;29;20483;-90
2023/01/02 05:20:09;;;;;;;3.17;0.90;;;;;;;10.97;100.00;96319.94;4880334;29;20460;-90
2023/01/02 05:25:32;;;;;;;2.57;1.00;;;;;;;10.93;100.00;96323.88;4892617;29;20064;-91
2023/01/02 05:27:58;;;;;;;2.57;0.80;;;;;;;10.80;100.00;96328.75;4874886;29;20132;-90
2023/01/02 05:30:24;;;;;;;1.60;0.63;;;;;;;10.74;100.00;96321.47;4898960;29;20035;-90
2023/01/02 05:33:01;;;;;;;2.23;0.60;;;;;;;10.79;100.00;96324.44;4894215;29;20040;-90
2023/01/02 05:35:35;;;;;;;2.10;0.80;;;;;;;10.80;100.00;96324.31;4883011;29;20033;-90
2023/01/02 05:38:04;;;;;;;2.20;0.80;;;;;;;10.67;100.00;96329.19;4883846;29;20037;-90
2023/01/02 05:40:29;;;;;;;2.20;0.63;;;;;;;10.56;100.00;96330.28;4883746;29;20029;-90
2023/01/02 05:42:55;;;;;;;2.77;0.73;;;;;;;10.51;100.00;96334.34;4882234;29;20052;-90
2023/01/02 05:45:21;;;;;;;3.50;1.23;;;;;;;10.39;100.00;96328.53;4881789;29;20052;-90
2023/01/02 05:47:46;;;;;;;5.93;1.70;;;;;;;10.36;100.00;96328.84;4881872;29;20051;-89
2023/01/02 05:50:19;;;;;;;2.90;1.30;;;;;;;10.34;100.00;96322.91;4898372;29;20036;-89
2023/01/02 05:52:45;;;;;;;2.22;1.05;;;;;;;10.41;100.00;96326.56;4891022;29;20040;-88
2023/01/02 05:55:11;;;;;;;1.67;0.70;;;;;;;10.40;100.00;96319.69;4883910;29;20047;-89
2023/01/02 05:57:58;;;;;;;2.33;1.20;;;;;;;10.49;100.00;96326.59;4902740;29;20036;-88
2023/01/02 06:00:23;;;;;;;1.50;0.90;;;;;;;10.60;100.00;96328.16;4905775;29;20040;-89
2023/01/02 06:02:53;;;;;;;1.83;0.63;;;;;;;10.78;100.00;96318.38;4908517;29;20049;-89
2023/01/02 06:05:18;;;;;;;2.03;0.60;;;;;;;10.92;100.00;96332.72;4887825;29;20041;-89
2023/01/02 06:07:44;;;;;;;1.27;0.50;;;;;;;11.05;100.00;96317.31;4882191;29;20055;-89
2023/01/02 06:10:09;;;;;;;3.30;1.20;;;;;;;11.39;100.00;96315.59;4882925;29;20036;-89
2023/01/02 06:12:42;;;;;;;4.03;1.10;;;;;;;11.55;100.00;96313.78;4898196;29;20044;-89
2023/01/02 06:15:08;;;;;;;1.50;0.63;;;;;;;11.73;100.00;96318.06;4881484;29;20054;-89
2023/01/02 06:17:41;;;;;;;1.67;0.73;;;;;;;11.92;100.00;96312.50;4896969;29;20480;-89
2023/01/02 06:20:08;;;;;;;2.58;0.90;;;;;;;11.94;100.00;96315.81;4866649;29;20046;-89
2023/01/02 06:22:34;;;;;;;2.27;0.87;;;;;;;11.99;100.00;96320.59;4881351;29;20056;-89
2023/01/02 06:24:59;;;;;;;2.63;0.80;;;;;;;11.96;100.00;96313.81;4866379;29;20052;-89
2023/01/02 06:27:25;;;;;;;1.83;0.73;;;;;;;11.96;100.00;96321.72;4881541;29;20037;-89
2023/01/02 06:29:50;;;;;;;2.00;0.60;;;;;;;11.97;100.00;96315.50;4880471;29;20036;-89
2023/01/02 06:32:19;;;;;;;2.30;0.60;;;;;;;12.03;100.00;96325.34;4879798;29;20040;-89
2023/01/02 06:34:52;;;;;;;3.03;0.77;;;;;;;12.01;100.00;96327.34;4877020;29;20119;-89
2023/01/02 06:37:18;;;;;;;1.60;0.85;;;;;;;12.05;100.00;96321.75;4892709;29;20031;-89
2023/01/02 06:39:44;;;;;;;2.67;1.07;;;;;;;12.03;100.00;96327.16;4882336;29;20044;-88
2023/01/02 06:42:09;;;;;;;2.00;0.70;;;;;;;12.07;100.00;96325.00;4880892;29;20132;-89
2023/01/02 06:44:35;;;;;;;3.23;0.80;;;;;;;12.07;100.00;96327.66;4868163;29;20041;-89
2023/01/02 06:47:01;;;;;;;3.37;0.80;;;;;;;12.07;100.00;96327.66;4893045;29;20546;-89
2023/01/02 06:49:26;;;;;;;3.97;1.00;;;;;;;12.15;100.00;96331.13;4880536;29;20035;-89
2023/01/02 06:51:52;;;;;;;2.30;0.70;;;;;;;12.11;100.00;96336.91;4865426;29;20047;-89
2023/01/02 06:54:37;;;;;;;1.70;0.60;;;;;;;12.09;100.00;96333.59;4901585;29;20050;-89
2023/01/02 06:57:14;;;;;;;1.40;0.60;;;;;;;12.06;100.00;96333.94;4884373;29;20040;-89
2023/01/02 06:59:40;;;;;;;2.77;0.50;;;;;;;11.93;100.00;96340.50;4883772;29;20151;-89
2023/01/02 07:02:06;;;;;;;0.70;0.50;;;;;;;11.98;100.00;96347.94;4896279;29;20176;-89
2023/01/02 07:04:31;;;;;;;1.90;0.70;;;;;;;11.99;100.00;96347.75;4890150;29;20036;-89
2023/01/02 07:06:57;;;;;;;2.07;0.63;;;;;;;11.95;100.00;96348.25;4878288;29;20044;-89
2023/01/02 07:09:23;;;;;;;1.27;0.63;;;;;;;11.94;100.00;96342.19;4884026;29;20035;-89
2023/01/02 07:11:48;;;;;;;1.77;0.97;;;;;;;11.95;100.00;96338.53;4878833;29;20064;-89
2023/01/02 07:14:14;;;;;;;2.10;0.70;;;;;;;11.89;100.00;96339.19;4880284;29;20127;-89
2023/01/02 07:16:43;;;;;;;3.63;0.70;;;;;;;11.92;100.00;96338.88;4880741;29;20119;-89
2023/01/02 07:19:08;;;;;;;2.63;0.70;;;;;;;11.95;100.00;96349.09;4882457;29;20083;-89
2023/01/02 07:21:35;;;;;;;4.60;1.07;;;;;;;11.88;100.00;96350.72;4895104;29;20040;-89
2023/01/02 07:24:01;;;;;;;3.60;0.87;;;;;;;11.90;100.00;96350.56;4885195;29;20456;-89
2023/01/02 07:26:27;;;;;;;1.77;0.77;;;;;;;11.75;100.00;96347.72;4881222;29;20032;-89
2023/01/02 07:28:55;;;;;;;2.90;0.60;;;;;;;11.81;100.00;96349.72;4865833;29;20040;-89
2023/01/02 07:31:21;;;;;;;3.97;1.13;;;;;;;11.74;100.00;96357.44;4900778;29;20032;-89
2023/01/02 07:33:47;;;;;;;1.43;0.70;;;;;;;11.76;100.00;96359.91;4894991;29;20088;-89
2023/01/02 07:36:15;;;;;;;3.30;1.03;;;;;;;11.96;100.00;96352.53;4908693;29;20085;-90
2023/01/02 07:38:41;;;;;;;4.13;0.73;;;;;;;11.96;100.00;96357.81;4909327;29;20031;-92
2023/01/02 07:41:15;;;;;;;3.53;0.83;;;;;;;12.04;100.00;96360.47;4897779;29;20044;-89
2023/01/02 07:43:42;;;;;;;3.83;0.80;;;;;;;12.02;100.00;96362.44;4885243;29;20044;-95
2023/01/02 07:46:07;;;;;;;3.47;1.30;;;;;;;11.94;100.00;96368.53;4908435;29;20020;-91
2023/01/02 07:48:37;;;;;;;5.77;2.13;;;;;;;11.79;100.00;96367.50;4891711;29;20044;-92
2023/01/02 07:51:04;;;;;;;4.97;1.97;;;;;;;11.64;100.00;96371.75;4890843;29;20135;-89
2023/01/02 07:53:31;;;;;;;3.20;1.00;;;;;;;11.45;100.00;96378.13;4867573;29;20040;-89
2023/01/02 07:55:58;;;;;;;5.83;1.20;;;;;;;11.36;100.00;96369.38;4863621;29;20039;-88
2023/01/02 07:58:24;;;;;;;3.47;1.37;;;;;;;11.24;100.00;96375.94;4892620;29;20068;-89
2023/01/02 08:00:53;;;;;;;2.13;0.90;;;;;;;11.14;100.00;96383.16;4878182;29;20044;-89
2023/01/02 08:03:20;;;;;;;2.20;0.90;;;;;;;10.94;100.00;96385.22;4877230;29;20063;-89
2023/01/02 08:05:49;;;;;;;2.97;1.10;;;;;;;10.74;100.00;96385.44;4877080;29;20040;-89
2023/01/02 08:08:15;;;;;;;3.90;1.40;;;;;;;10.57;100.00;96395.03;4887682;29;20185;-88
2023/01/02 08:10:42;;;;;;;4.77;1.60;;;;;;;10.54;100.00;96399.78;4880448;29;20072;-90
2023/01/02 08:13:23;;;;;;;2.40;1.30;;;;;;;10.51;100.00;96406.16;4880035;29;20049;-89
2023/01/02 08:15:52;;;;;;;5.37;1.63;;;;;;;10.47;100.00;96412.72;4877694;29;20036;-90
2023/01/02 08:18:21;;;;;;;3.83;1.10;;;;;;;10.42;100.00;96412.34;4881460;29;20047;-88
2023/01/02 08:20:49;;;;;;;2.70;1.10;;;;;;;10.44;100.00;96415.66;4880238;29;20037;-89
2023/01/02 08:23:17;;;;;;;2.50;1.00;;;;;;;10.50;100.00;96420.31;4894903;29;20036;-89
2023/01/02 08:25:43;;;;;;;3.10;1.10;;;;;;;10.57;100.00;96417.88;4880293;29;20036;-89
2023/01/02 08:28:10;;;;;;;4.30;0.90;;;;;;;10.58;100.00;96422.16;4882063;29;20037;-89
2023/01/02 08:30:39;;;;;;;2.63;1.00;;;;;;;10.62;100.00;96423.50;4913991;29;20063;-89
2023/01/02 08:33:05;;;;;;;2.70;1.10;;;;;;;10.69;100.00;96431.59;4886404;29;20086;-89
2023/01/02 08:35:30;;;;;;;2.90;1.30;;;;;;;10.71;100.00;96434.91;4868159;29;20492;-88
2023/01/02 08:37:56;;;;;;;2.07;0.90;;;;;;;10.78;100.00;96441.19;4884006;29;20387;-89
2023/01/02 08:40:25;;;;;;;2.17;0.70;;;;;;;10.81;100.00;96443.50;4881308;29;20088;-89
2023/01/02 08:42:52;;;;;;;3.47;1.00;;;;;;;10.84;100.00;96440.56;4887167;29;20178;-89
2023/01/02 08:45:19;;;;;;;2.43;0.83;;;;;;;10.87;100.00;96445.53;4896832;29;20040;-89
2023/01/02 08:47:52;;;;;;;2.53;1.10;;;;;;;10.84;100.00;96451.91;4878920;29;20040;-90
2023/01/02 08:50:20;;;;;;;3.43;1.27;;;;;;;10.83;100.00;96452.91;4878180;29;20059;-88
2023/01/02 08:52:53;;;;;;;5.33;1.23;;;;;;;10.84;100.00;96456.34;4895475;29;20041;-89
2023/01/02 08:55:19;;;;;;;3.67;1.30;;;;;;;10.88;100.00;96454.25;4881911;29;20043;-90
2023/01/02 08:57:44;;;;;;;2.70;1.20;;;;;;;10.93;100.00;96462.47;4877790;29;20045;-89
2023/01/02 09:00:10;;;;;;;5.13;1.07;;;;;;;10.94;100.00;96464.16;4890009;29;20029;-89
2023/01/02 09:02:51;;;;;;;4.27;1.60;;;;;;;10.99;100.00;96459.22;4865345;29;20500;-89
2023/01/02 09:05:21;;;;;;;4.17;1.57;;;;;;;11.04;100.00;96465.69;4884783;29;20128;-89
2023/01/02 09:07:47;;;;;;;4.33;1.30;;;;;;;11.08;100.00;96464.38;4883198;29;20047;-90
2023/01/02 09:10:13;;;;;;;3.60;1.40;;;;;;;11.16;100.00;96468.84;4883187;29;20032;-88
2023/01/02 09:12:40;;;;;;;4.20;1.70;;;;;;;11.28;100.00;96467.59;4883127;29;20033;-89
2023/01/02 09:15:06;;;;;;;5.23;1.90;;;;;;;11.42;100.00;96466.19;4887870;29;20070;-89
2023/01/02 09:17:32;;;;;;;7.87;3.63;;;;;;;11.59;100.00;96469.69;4889723;29;20079;-89
2023/01/02 09:20:00;;;;;;;11.73;5.20;;;;;;;11.65;100.00;96461.16;4888679;29;20440;-88
2023/01/02 09:22:25;;;;;;;7.73;3.37;;;;;;;11.67;100.00;96463.63;4888626;29;20044;-89
2023/01/02 09:24:51;;;;;;;11.20;4.10;;;;;;;11.73;100.00;96469.06;4891824;29;20490;-90
2023/01/02 09:27:17;;;;;;;10.50;3.43;;;;;;;11.85;100.00;96469.63;4885584;29;20055;-88
2023/01/02 09:29:46;;;;;;;7.50;3.40;;;;;;;11.82;100.00;96469.09;4882210;29;20797;-89
2023/01/02 09:32:12;;;;;;;9.17;3.83;;;;;;;11.90;100.00;96467.31;4886170;29;20041;-90
2023/01/02 09:34:38;;;;;;;11.53;4.37;;;;;;;11.84;100.00;96473.28;4902688;29;20055;-89
2023/01/02 09:37:16;;;;;;;9.20;3.47;;;;;;;11.86;100.00;96479.19;4903094;29;20051;-89
2023/01/02 09:39:44;;;;;;;5.50;2.70;;;;;;;11.86;100.00;96479.19;4882588;29;20052;-89
2023/01/02 09:42:14;;;;;;;3.63;1.60;;;;;;;11.87;100.00;96480.00;4901152;29;20066;-89
2023/01/02 09:44:46;;;;;;;5.27;1.57;;;;;;;12.05;100.00;96477.25;4881841;29;20079;-89
2023/01/02 09:47:18;;;;;;;3.80;1.20;;;;;;;12.02;100.00;96478.41;4904111;29;20041;-89
2023/01/02 09:49:48;;;;;;;4.17;1.10;;;;;;;12.13;100.00;96478.09;4888066;29;20451;-89
2023/01/02 09:52:31;;;;;;;3.40;1.20;;;;;;;12.01;100.00;96480.22;4891124;29;20040;-89
2023/01/02 09:54:57;;;;;;;6.00;1.50;;;;;;;11.83;100.00;96490.00;4887167;29;20044;-88
2023/01/02 09:57:28;;;;;;;5.83;1.40;;;;;;;11.80;100.00;96492.97;4883532;29;20080;-89
2023/01/02 10:00:19;;;;;;;5.20;1.63;;;;;;;11.79;100.00;96488.69;4879161;29;20496;-89
2023/01/02 10:03:22;;;;;;;4.70;1.70;;;;;;;11.76;100.00;96489.00;4880345;29;20052;-89
2023/01/02 10:05:55;;;;;;;4.57;1.20;;;;;;;11.82;100.00;96475.19;4893444;29;20764;-89
2023/01/02 10:08:59;;;;;;;5.03;1.97;;;;;;;11.75;100.00;96490.00;4887068;29;20064;-89
2023/01/02 10:11:56;;;;;;;3.10;1.40;;;;;;;11.77;100.00;96485.41;4883200;29;20123;-89
2023/01/02 10:14:27;;;;;;;5.43;1.43;;;;;;;11.84;100.00;96486.44;4880848;29;20131;-89
2023/01/02 10:16:59;;;;;;;4.43;1.50;;;;;;;11.86;100.00;96486.28;4887377;29;20051;-89
2023/01/02 10:19:34;;;;;;;4.07;1.60;;;;;;;11.97;100.00;96492.09;4882651;29;20041;-89
2023/01/02 10:22:03;;;;;;;4.70;1.60;;;;;;;11.97;100.00;96483.31;4883100;29;20049;-89
2023/01/02 10:25:05;;;;;;;5.37;2.00;;;;;;;12.07;100.00;96488.44;4887584;29;20036;-89
2023/01/02 10:27:49;;;;;;;5.87;2.00;;;;;;;12.08;100.00;96490.94;4883982;29;20041;-88
2023/01/02 10:30:38;;;;;;;9.07;3.53;;;;;;;12.01;100.00;96488.13;4882379;29;20119;-90
2023/01/02 10:33:38;;;;;;;11.47;2.73;;;;;;;11.99;100.00;96503.25;4900767;29;20032;-89
2023/01/02 10:36:25;;;;;;;7.30;3.00;;;;;;;11.98;100.00;96514.81;4885825;29;20192;-89
2023/01/02 10:38:56;;;;;;;5.43;2.23;;;;;;;12.01;100.00;96517.13;4878774;29;20036;-88
2023/01/02 10:41:23;;;;;;;5.10;2.60;;;;;;;12.10;100.00;96517.13;4897315;29;20036;-88
2023/01/02 10:43:54;;;;;;;5.67;2.20;;;;;;;12.12;100.00;96508.06;4892082;29;20045;-89
2023/01/02 10:46:28;;;;;;;5.13;1.90;;;;;;;12.08;100.00;96506.75;4888511;29;20059;-89
2023/01/02 10:48:54;;;;;;;3.87;1.30;;;;;;;12.08;100.00;96505.94;4904260;29;20109;-89
2023/01/02 10:51:21;;;;;;;4.83;1.90;;;;;;;12.20;100.00;96502.81;4895288;29;20032;-89
2023/01/02 10:54:14;;;;;;;8.63;2.33;;;;;;;12.38;100.00;96502.69;4882722;29;20702;-89
2023/01/02 10:56:44;;;;;;;4.70;1.83;;;;;;;12.50;100.00;96495.25;4881967;29;20043;-89
2023/01/02 10:59:23;;;;;;;6.57;1.93;;;;;;;12.45;100.00;96498.41;4888241;29;20037;-94
2023/01/02 11:01:52;;;;;;;7.33;1.83;;;;;;;12.81;100.00;96492.78;4895173;29;20041;-93
2023/01/02 11:04:29;;;;;;;5.43;1.33;;;;;;;12.96;100.00;96482.34;4886226;29;20100;-90
2023/01/02 11:07:00;;;;;;;5.60;1.90;;;;;;;13.25;100.00;96495.03;4891864;29;20028;-90
2023/01/02 11:09:32;;;;;;;4.57;1.90;;;;;;;13.37;100.00;96498.94;4892657;29;20051;-88
2023/01/02 11:12:37;;;;;;;;;;;;;;;;;;;;;
2023/01/02 11:15:11;;;;;;;6.73;2.30;;;;;;;13.64;100.00;96500.31;4856106;29;20051;-93
2023/01/02 11:17:42;;;;;;;7.23;2.33;;;;;;;13.79;100.00;96503.09;4888073;29;20202;-93
2023/01/02 11:20:50;;;;;;;11.87;4.13;;;;;;;14.16;100.00;96493.63;4892512;29;20044;-94
2023/01/02 11:23:22;;;;;;;5.47;1.80;;;;;;;14.25;100.00;96497.03;4913011;29;20052;-87
2023/01/02 11:25:50;;;;;;;6.67;1.73;;;;;;;14.14;100.00;96490.31;4918065;29;20096;-93
2023/01/02 11:28:27;;;;;;;5.27;1.47;;;;;;;14.18;100.00;96498.72;4882596;29;20046;-89
2023/01/02 11:31:00;;;;;;;5.37;1.77;;;;;;;14.03;100.00;96498.66;4901006;29;20095;-90
2023/01/02 11:33:41;;;;;;;3.67;1.88;;;;;;;14.10;100.00;96499.63;4890073;29;20028;-91
2023/01/02 11:36:10;;;;;;;7.70;1.93;;;;;;;14.06;100.00;96498.31;4881454;29;20443;-90
2023/01/02 11:38:57;;;;;;;4.83;1.87;;;;;;;13.95;100.00;96507.47;4879427;29;20041;-92
2023/01/02 11:44:32;;;;;;;6.50;2.37;;;;;;;13.84;100.00;96519.25;4894666;29;20119;-91
2023/01/02 11:47:00;;;;;;;5.57;2.17;;;;;;;13.83;100.00;96527.34;4882986;29;20251;-91
2023/01/02 11:49:47;;;;;;;14.03;6.80;;;;;;;13.90;100.00;96515.91;4880909;29;20040;-90
2023/01/02 11:52:22;;;;;;;8.63;3.10;;;;;;;13.74;100.00;96521.28;4881246;29;20048;-89
2023/01/02 11:55:36;;;;;;;8.03;2.60;;;;;;;13.74;100.00;96510.69;4887406;29;20384;-89
2023/01/02 11:58:52;;;;;;;8.45;2.75;;;;;;;13.65;100.00;96509.09;4881046;29;20051;-90